createdAt,value
2023-04-30T00:03:31.301Z,94.11
2023-04-30T00:08:33.097Z,93.57
2023-04-30T00:13:34.769Z,93.71
2023-04-30T00:18:36.451Z,93.35
2023-04-30T00:23:38.325Z,92.45
2023-04-30T00:28:39.937Z,90.58
2023-04-30T00:33:41.778Z,90.21
2023-04-30T00:38:43.387Z,89.80
2023-04-30T00:43:47.170Z,89.87
2023-04-30T00:48:49.330Z,89.35
2023-04-30T00:53:51.913Z,89.78
2023-04-30T00:58:57.305Z,89.61
2023-04-30T01:03:59.304Z,89.47
2023-04-30T01:09:01.201Z,88.97
2023-04-30T01:14:21.259Z,89.15
2023-04-30T01:19:41.948Z,89.31
2023-04-30T01:24:56.127Z,88.76
2023-04-30T01:29:58.222Z,88.89
2023-04-30T01:35:02.925Z,89.17
2023-04-30T01:40:27.078Z,89.30
2023-04-30T01:45:54.424Z,88.88
2023-04-30T01:51:09.084Z,89.16
2023-04-30T01:56:18.491Z,88.97
2023-04-30T02:01:27.722Z,88.54
2023-04-30T02:06:30.253Z,89.23
2023-04-30T02:11:33.632Z,88.82
2023-04-30T02:16:35.580Z,88.92
2023-04-30T02:21:37.475Z,88.77
2023-04-30T02:26:39.923Z,89.62
2023-04-30T02:31:41.675Z,89.94
2023-04-30T02:36:45.906Z,89.75
2023-04-30T02:41:47.497Z,89.91
2023-04-30T02:46:49.244Z,89.67
2023-04-30T02:51:50.859Z,89.14
2023-04-30T02:56:53.702Z,89.11
2023-04-30T03:01:55.339Z,88.95
2023-04-30T03:06:57.012Z,89.25
2023-04-30T03:11:58.827Z,89.19
2023-04-30T03:17:00.555Z,88.94
2023-04-30T03:22:03.197Z,88.97
2023-04-30T03:27:05.246Z,88.80
2023-04-30T03:32:06.884Z,88.79
2023-04-30T03:37:08.662Z,88.73
2023-04-30T03:42:10.553Z,88.45
2023-04-30T03:47:12.691Z,88.62
2023-04-30T03:52:14.885Z,88.13
2023-04-30T03:57:17.015Z,88.10
2023-04-30T04:02:18.943Z,88.35
2023-04-30T04:07:20.654Z,88.56
2023-04-30T04:12:22.752Z,87.70
2023-04-30T04:17:24.497Z,86.24
2023-04-30T04:22:26.673Z,86.70
2023-04-30T04:27:28.525Z,87.07
2023-04-30T04:32:30.673Z,87.01
2023-04-30T04:37:32.428Z,85.70
2023-04-30T04:42:34.091Z,85.86
2023-04-30T04:47:36.664Z,84.28
2023-04-30T04:52:39.208Z,82.60
2023-04-30T04:57:42.007Z,79.21
2023-04-30T05:02:43.674Z,80.36
2023-04-30T05:07:45.995Z,81.20
2023-04-30T05:12:47.675Z,81.21
2023-04-30T05:17:49.340Z,82.03
2023-04-30T05:22:50.969Z,79.69
2023-04-30T05:27:52.851Z,79.34
2023-04-30T05:32:56.238Z,77.96
2023-04-30T05:37:57.891Z,75.82
2023-04-30T05:42:59.478Z,74.48
2023-04-30T05:48:02.026Z,75.27
2023-04-30T05:53:04.042Z,75.59
2023-04-30T05:58:06.404Z,75.71
2023-04-30T06:03:08.304Z,76.62
2023-04-30T06:08:10.017Z,76.59
2023-04-30T06:13:11.705Z,76.63
2023-04-30T06:18:14.252Z,77.46
2023-04-30T06:23:16.043Z,77.31
2023-04-30T06:28:17.660Z,76.91
2023-04-30T06:33:19.327Z,77.25
2023-04-30T06:38:21.322Z,75.52
2023-04-30T06:43:22.987Z,75.04
2023-04-30T06:48:24.721Z,74.88
2023-04-30T06:53:26.497Z,74.90
2023-04-30T06:58:28.344Z,72.71
2023-04-30T07:03:30.017Z,70.46
2023-04-30T07:08:31.821Z,72.34
2023-04-30T07:13:33.431Z,67.50
2023-04-30T07:18:35.262Z,69.66
2023-04-30T07:23:36.973Z,69.39
2023-04-30T07:28:38.586Z,68.36
2023-04-30T07:33:40.224Z,67.06
2023-04-30T07:38:41.816Z,68.40
2023-04-30T07:43:43.781Z,66.50
2023-04-30T07:48:45.615Z,64.99
2023-04-30T07:53:47.698Z,64.80
2023-04-30T07:58:49.341Z,66.36
2023-04-30T08:03:51.058Z,66.58
2023-04-30T08:08:53.370Z,66.16
2023-04-30T08:13:55.645Z,65.86
2023-04-30T08:18:57.372Z,65.63
2023-04-30T08:23:59.058Z,63.42
2023-04-30T08:29:00.722Z,63.75
2023-04-30T08:34:02.337Z,63.34
2023-04-30T08:39:04.384Z,62.33
2023-04-30T08:44:08.310Z,61.74
2023-04-30T08:49:10.842Z,61.45
2023-04-30T08:54:14.022Z,60.72
2023-04-30T08:59:16.118Z,62.91
2023-04-30T09:04:18.401Z,61.89
2023-04-30T09:09:19.990Z,60.43
2023-04-30T09:14:27.825Z,61.41
2023-04-30T09:19:31.118Z,60.52
2023-04-30T09:24:47.207Z,59.73
2023-04-30T09:29:49.207Z,58.97
2023-04-30T09:34:51.116Z,60.50
2023-04-30T09:39:56.354Z,59.78
2023-04-30T09:44:58.387Z,61.42
2023-04-30T09:50:00.828Z,60.42
2023-04-30T09:55:02.630Z,60.03
2023-04-30T10:00:04.831Z,59.43
2023-04-30T10:05:11.244Z,60.91
2023-04-30T10:10:14.982Z,60.00
2023-04-30T10:15:25.833Z,57.25
2023-04-30T10:20:29.547Z,56.54
2023-04-30T10:25:32.815Z,58.68
2023-04-30T10:30:36.235Z,57.63
2023-04-30T10:35:51.081Z,57.24
2023-04-30T10:40:58.120Z,57.96
2023-04-30T10:46:00.129Z,58.32
2023-04-30T10:51:02.072Z,55.95
2023-04-30T10:56:09.343Z,54.43
2023-04-30T11:01:17.448Z,56.68
2023-04-30T11:06:20.732Z,55.34
2023-04-30T11:11:23.870Z,54.68
2023-04-30T11:16:35.097Z,53.69
2023-04-30T11:22:05.125Z,54.17
2023-04-30T11:27:06.984Z,54.75
2023-04-30T11:32:09.047Z,54.88
2023-04-30T11:37:16.639Z,56.58
2023-04-30T11:42:19.733Z,57.21
2023-04-30T11:47:21.430Z,54.23
2023-04-30T11:52:25.606Z,56.34
2023-04-30T11:57:27.206Z,55.43
2023-04-30T12:02:29.051Z,56.20
2023-04-30T12:07:30.715Z,57.29
2023-04-30T12:12:32.430Z,55.87
2023-04-30T12:17:35.651Z,56.66
2023-04-30T12:22:37.658Z,54.20
2023-04-30T12:27:45.372Z,55.19
2023-04-30T12:32:50.939Z,55.59
2023-04-30T12:38:02.210Z,54.37
2023-04-30T12:43:08.887Z,57.74
2023-04-30T12:48:11.270Z,57.33
2023-04-30T12:53:13.285Z,57.69
2023-04-30T12:58:15.173Z,58.92
2023-04-30T13:03:21.607Z,57.78
2023-04-30T13:08:23.592Z,58.13
2023-04-30T13:13:25.487Z,56.87
2023-04-30T13:18:27.312Z,54.92
2023-04-30T13:23:30.395Z,54.66
2023-04-30T13:28:32.341Z,55.32
2023-04-30T13:33:34.074Z,55.98
2023-04-30T13:38:35.670Z,55.39
2023-04-30T13:43:41.422Z,56.46
2023-04-30T13:48:43.869Z,56.92
2023-04-30T13:53:45.592Z,55.85
2023-04-30T13:58:47.195Z,54.62
2023-04-30T14:03:48.899Z,56.44
2023-04-30T14:08:50.620Z,56.81
2023-04-30T14:13:52.537Z,58.06
2023-04-30T14:18:54.197Z,57.06
2023-04-30T14:23:55.903Z,58.05
2023-04-30T14:28:58.086Z,53.37
2023-04-30T14:34:00.049Z,53.95
2023-04-30T14:39:04.470Z,52.72
2023-04-30T14:44:06.083Z,52.40
2023-04-30T14:49:07.751Z,53.95
2023-04-30T14:54:09.706Z,51.78
2023-04-30T14:59:12.039Z,52.60
2023-04-30T15:04:13.624Z,51.31
2023-04-30T15:09:15.676Z,50.10
2023-04-30T15:14:17.435Z,49.83
2023-04-30T15:19:19.194Z,54.33
2023-04-30T15:24:22.625Z,55.30
2023-04-30T15:29:25.003Z,56.72
2023-04-30T15:34:26.769Z,57.53
2023-04-30T15:39:28.660Z,55.83
2023-04-30T15:44:30.344Z,55.71
2023-04-30T15:49:32.030Z,52.95
2023-04-30T15:54:33.724Z,53.12
2023-04-30T15:59:35.928Z,53.53
2023-04-30T16:04:37.516Z,51.92
2023-04-30T16:09:39.481Z,53.93
2023-04-30T16:14:41.247Z,53.67
2023-04-30T16:19:43.017Z,53.41
2023-04-30T16:24:44.679Z,54.44
2023-04-30T16:29:46.459Z,54.17
2023-04-30T16:34:48.071Z,54.46
2023-04-30T16:39:49.682Z,54.40
2023-04-30T16:44:51.465Z,54.79
2023-04-30T16:49:53.444Z,55.21
2023-04-30T16:54:55.605Z,56.25
2023-04-30T16:59:57.453Z,56.03
2023-04-30T17:04:59.292Z,56.49
2023-04-30T17:10:01.073Z,56.28
2023-04-30T17:15:03.829Z,56.27
2023-04-30T17:20:06.315Z,58.12
2023-04-30T17:25:08.375Z,59.13
2023-04-30T17:30:10.135Z,58.69
2023-04-30T17:35:11.728Z,59.02
2023-04-30T17:40:13.637Z,58.78
2023-04-30T17:45:16.359Z,59.29
2023-04-30T17:50:18.874Z,59.49
2023-04-30T17:55:21.976Z,59.91
2023-04-30T18:00:24.099Z,60.79
2023-04-30T18:05:25.936Z,61.44
2023-04-30T18:10:27.867Z,61.52
2023-04-30T18:15:34.992Z,62.07
2023-04-30T18:20:38.553Z,62.16
2023-04-30T18:25:42.359Z,62.65
2023-04-30T18:30:45.121Z,64.64
2023-04-30T18:35:49.723Z,64.12
2023-04-30T18:40:55.772Z,64.49
2023-04-30T18:45:57.682Z,64.65
2023-04-30T18:50:59.514Z,64.68
2023-04-30T18:56:01.114Z,65.41
2023-04-30T19:01:04.364Z,65.82
2023-04-30T19:06:06.231Z,65.73
2023-04-30T19:11:08.579Z,66.19
2023-04-30T19:16:10.314Z,66.29
2023-04-30T19:21:13.058Z,67.33
2023-04-30T19:26:14.695Z,68.63
2023-04-30T19:31:17.870Z,67.99
2023-04-30T19:36:19.591Z,68.08
2023-04-30T19:41:21.710Z,67.78
2023-04-30T19:46:23.663Z,67.95
2023-04-30T19:51:25.871Z,68.44
2023-04-30T19:56:27.576Z,68.36
2023-04-30T20:01:29.472Z,68.36
2023-04-30T20:06:31.704Z,68.61
2023-04-30T20:11:33.390Z,68.71
2023-04-30T20:16:35.063Z,68.82
2023-04-30T20:21:36.780Z,69.00
2023-04-30T20:26:38.669Z,69.21
2023-04-30T20:31:40.543Z,69.36
2023-04-30T20:36:43.306Z,69.91
2023-04-30T20:41:47.918Z,70.03
2023-04-30T20:46:49.729Z,70.24
2023-04-30T20:51:51.615Z,70.87
2023-04-30T20:56:53.260Z,70.46
2023-04-30T21:01:54.900Z,70.56
2023-04-30T21:06:56.635Z,70.47
2023-04-30T21:11:58.299Z,70.70
2023-04-30T21:16:59.931Z,71.09
2023-04-30T21:22:01.663Z,71.56
2023-04-30T21:27:04.197Z,71.48
2023-04-30T21:32:05.825Z,71.80
2023-04-30T21:37:07.451Z,72.46
2023-04-30T21:42:09.298Z,73.37
2023-04-30T21:47:11.119Z,74.03
2023-04-30T21:52:12.806Z,73.63
2023-04-30T21:57:14.437Z,73.23
2023-04-30T22:02:23.777Z,72.96
2023-04-30T22:07:27.331Z,72.50
2023-04-30T22:12:28.928Z,72.61
2023-04-30T22:17:30.681Z,73.25
2023-04-30T22:22:33.016Z,73.98
2023-04-30T22:27:34.632Z,74.21
2023-04-30T22:32:36.349Z,74.45
2023-04-30T22:37:40.606Z,74.71
2023-04-30T22:42:43.577Z,75.26
2023-04-30T22:47:45.862Z,74.97
2023-04-30T22:52:47.805Z,74.61
2023-04-30T22:57:49.394Z,75.19
2023-04-30T23:02:51.043Z,75.32
2023-04-30T23:07:54.097Z,74.97
2023-04-30T23:12:56.648Z,75.20
2023-04-30T23:18:00.343Z,75.61
2023-04-30T23:23:02.330Z,76.79
2023-04-30T23:28:05.000Z,77.48
2023-04-30T23:33:06.840Z,77.29
2023-04-30T23:38:09.304Z,76.97
2023-04-30T23:43:11.683Z,77.15
2023-04-30T23:48:13.588Z,77.35
2023-04-30T23:53:17.168Z,77.32
2023-04-30T23:58:18.800Z,77.49
